This is the latest recevied weather packets stored in our database for station/object NG7N. If no packets are shown the sender has not sent any weather packets the latest 10 day(s).
| Time | Temp. | Humidity | Pressure | Rain* | Wind** | Luminosity | Snow |
|---|---|---|---|---|---|---|---|
| 1777915766 | 20° C | 55% | 1011.1 hPa | 0 mm | - | - | - |
| 1777915166 | 19.44° C | 57% | 1011.1 hPa | 0 mm | - | - | - |
| 1777914566 | 20° C | 56% | 1011 hPa | 0 mm | - | - | - |
| 1777913366 | 20° C | 52% | 1010.8 hPa | 0 mm | - | - | - |
| 1777911643 | 18.33° C | 57% | 1010.8 hPa | 0 mm | - | - | - |
| 1777911566 | 18.33° C | 57% | 1010.8 hPa | 0 mm | - | - | - |
| 1777910966 | 18.33° C | 60% | 1010.8 hPa | 0 mm | - | - | - |
| 1777907366 | 17.22° C | 69% | 1010.3 hPa | 0 mm | - | - | - |
| 1777906767 | 16.67° C | 70% | 1010.3 hPa | 0 mm | - | - | - |
| 1777903467 | 15° C | 71% | 1009.9 hPa | 0 mm | - | - | - |
| 1777901966 | 13.89° C | 71% | 1009.8 hPa | 0 mm | - | - | - |
| 1777900467 | 14.44° C | 68% | 1009.5 hPa | 0 mm | - | - | - |
| 1777899865 | 14.44° C | 67% | 1009.5 hPa | 0 mm | - | - | - |
| 1777899267 | 13.89° C | 66% | 1009.4 hPa | 0 mm | - | - | - |
| 1777898966 | 13.89° C | 66% | 1009.4 hPa | 0 mm | - | - | - |
| 1777897766 | 13.89° C | 66% | 1009.4 hPa | 0 mm | - | - | - |
| 1777897465 | 13.89° C | 66% | 1009.4 hPa | 0 mm | - | - | - |
| 1777896866 | 14.44° C | 65% | 1009.4 hPa | 0 mm | - | - | - |
| 1777896266 | 14.44° C | 65% | 1009.4 hPa | 0 mm | - | - | - |
| 1777893866 | 15.56° C | 61% | 1009.3 hPa | 0 mm | - | - | - |
| 1777893566 | 15.56° C | 60% | 1009.3 hPa | 0 mm | - | - | - |
| 1777893265 | 15.56° C | 58% | 1009.4 hPa | 0 mm | - | - | - |
| 1777892966 | 15.56° C | 58% | 1009.4 hPa | 0 mm | - | - | - |
| 1777892666 | 15.56° C | 59% | 1009.4 hPa | 0 mm | - | - | - |
| 1777892365 | 15.56° C | 59% | 1009.4 hPa | 0 mm | - | - | - |
* Rain latest hour (hover to see other rain measurements)
** Current wind speed in m/s (hover to see current wind gust speed)